Time;durP1;ratioP1;P1;durP2;ratioP2;P2;SDS_P1;SDS_P2;PMS_P1;PMS_P2;Temp;Humidity;BMP_temperature;BMP_pressure;BME280_temperature;BME280_humidity;BME280_pressure;Samples;Min_cycle;Max_cycle;Signal;HPM_P1;HPM_P2
2021/11/30 00:00:14;;;;;;;4.70;2.00;;;1.00;99.90;;;;;;5022111;28;20192;-81
2021/11/30 00:02:40;;;;;;;6.83;2.67;;;1.00;99.90;;;;;;5004916;28;20497;-82
2021/11/30 00:05:07;;;;;;;6.83;2.70;;;1.10;99.90;;;;;;5021606;28;20033;-82
2021/11/30 00:07:34;;;;;;;7.47;2.53;;;1.10;99.90;;;;;;5004829;28;20125;-82
2021/11/30 00:12:28;;;;;;;5.80;2.17;;;1.10;99.90;;;;;;5022108;28;20022;-82
2021/11/30 00:14:55;;;;;;;5.67;2.00;;;1.10;99.90;;;;;;5013034;28;20118;-81
2021/11/30 00:17:22;;;;;;;5.57;2.17;;;1.20;99.90;;;;;;5020904;28;20029;-81
2021/11/30 00:19:50;;;;;;;6.83;2.60;;;1.20;99.90;;;;;;5028507;28;20547;-83
2021/11/30 00:22:21;;;;;;;4.90;2.37;;;1.20;99.90;;;;;;5023504;28;20075;-82
2021/11/30 00:24:47;;;;;;;4.77;2.07;;;1.20;99.90;;;;;;5026144;28;20112;-82
2021/11/30 00:27:14;;;;;;;5.30;2.00;;;1.20;99.90;;;;;;5036253;28;20056;-82
2021/11/30 00:29:39;;;;;;;8.17;2.70;;;1.20;99.90;;;;;;5039239;28;20028;-82
2021/11/30 00:32:06;;;;;;;5.87;2.30;;;1.20;99.90;;;;;;5036340;28;20043;-82
2021/11/30 00:34:33;;;;;;;4.87;2.00;;;1.10;99.90;;;;;;5034754;28;20472;-82
2021/11/30 00:36:59;;;;;;;5.60;2.17;;;1.20;99.90;;;;;;5019041;28;20059;-82
2021/11/30 00:39:24;;;;;;;4.20;1.80;;;1.10;99.90;;;;;;5035635;28;20030;-82
2021/11/30 00:41:53;;;;;;;4.87;2.40;;;1.20;99.90;;;;;;5035557;28;20087;-82
2021/11/30 00:44:23;;;;;;;4.77;2.50;;;1.10;99.90;;;;;;5059886;28;20085;-82
2021/11/30 00:46:52;;;;;;;5.87;1.90;;;1.10;99.90;;;;;;5044916;28;20036;-82
2021/11/30 00:49:18;;;;;;;4.23;2.03;;;1.00;99.90;;;;;;5055587;28;20029;-82
2021/11/30 00:51:44;;;;;;;3.70;1.63;;;1.00;99.90;;;;;;5031799;28;20032;-82
2021/11/30 00:54:12;;;;;;;4.20;1.87;;;1.00;99.90;;;;;;5034896;28;20036;-82
2021/11/30 00:56:42;;;;;;;4.73;1.77;;;1.00;99.90;;;;;;5053035;28;20029;-82
2021/11/30 00:59:08;;;;;;;4.70;1.60;;;1.10;99.90;;;;;;5038160;28;20041;-82
2021/11/30 01:01:36;;;;;;;3.90;1.60;;;1.00;99.90;;;;;;5057965;28;20192;-82
2021/11/30 01:04:02;;;;;;;5.50;2.03;;;1.00;99.90;;;;;;5050731;28;20455;-82
2021/11/30 01:06:29;;;;;;;3.33;1.57;;;1.00;99.90;;;;;;5061269;28;20028;-82
2021/11/30 01:08:54;;;;;;;2.83;1.30;;;1.10;99.90;;;;;;5050437;28;20045;-82
2021/11/30 01:11:20;;;;;;;3.23;1.77;;;1.00;99.90;;;;;;5020794;28;20029;-82
2021/11/30 01:13:46;;;;;;;4.77;1.40;;;1.00;99.90;;;;;;5020318;28;20435;-82
2021/11/30 01:16:11;;;;;;;5.77;1.67;;;1.10;99.90;;;;;;5010779;28;20017;-82
2021/11/30 01:18:37;;;;;;;3.97;1.43;;;1.10;99.90;;;;;;5023643;28;20041;-83
2021/11/30 01:21:04;;;;;;;2.93;1.33;;;1.10;99.90;;;;;;5022055;28;20022;-82
2021/11/30 01:23:30;;;;;;;3.57;1.20;;;1.10;99.90;;;;;;5031173;28;20040;-80
2021/11/30 01:25:58;;;;;;;3.70;1.63;;;1.10;99.90;;;;;;5034182;28;20029;-81
2021/11/30 01:28:23;;;;;;;4.67;1.67;;;1.10;99.90;;;;;;5062665;28;20047;-81
2021/11/30 01:30:50;;;;;;;3.03;1.50;;;1.10;99.90;;;;;;5060590;28;20482;-81
2021/11/30 01:33:15;;;;;;;3.47;1.47;;;1.20;99.90;;;;;;5038972;28;20109;-82
2021/11/30 01:35:44;;;;;;;3.13;1.43;;;1.20;99.90;;;;;;5025530;28;20053;-81
2021/11/30 01:38:10;;;;;;;2.77;1.20;;;1.20;99.90;;;;;;5006458;28;20022;-81
2021/11/30 01:40:35;;;;;;;4.00;1.67;;;1.20;99.90;;;;;;5023964;28;20410;-81
2021/11/30 01:43:04;;;;;;;2.60;1.23;;;1.20;99.90;;;;;;5019695;28;20414;-81
2021/11/30 01:50:37;;;;;;;2.97;1.30;;;1.20;99.90;;;;;;5066050;28;20112;-81
2021/11/30 01:53:04;;;;;;;3.13;1.13;;;1.20;99.90;;;;;;5010537;28;20091;-81
2021/11/30 01:55:31;;;;;;;3.07;1.20;;;1.20;99.90;;;;;;5023984;28;20026;-81
2021/11/30 01:57:58;;;;;;;3.57;0.90;;;1.20;99.90;;;;;;5026022;28;20054;-81
2021/11/30 02:00:25;;;;;;;3.63;1.43;;;1.20;99.90;;;;;;5040376;28;20020;-82
2021/11/30 02:02:51;;;;;;;5.07;0.90;;;1.20;99.90;;;;;;5022849;28;20062;-81
2021/11/30 02:05:18;;;;;;;3.17;1.17;;;1.10;99.90;;;;;;5021078;28;20382;-81
2021/11/30 02:07:44;;;;;;;3.83;1.33;;;1.20;99.90;;;;;;5023236;28;20037;-82
2021/11/30 02:10:12;;;;;;;3.13;1.17;;;1.20;99.90;;;;;;5023630;28;20026;-81
2021/11/30 02:12:39;;;;;;;3.40;1.10;;;1.20;99.90;;;;;;5022366;28;20026;-81
2021/11/30 02:15:08;;;;;;;3.33;1.03;;;1.20;99.90;;;;;;5031710;28;20041;-81
2021/11/30 02:17:35;;;;;;;4.10;1.07;;;1.30;99.90;;;;;;5050179;28;20025;-81
2021/11/30 02:20:02;;;;;;;2.33;1.03;;;1.20;99.90;;;;;;5062073;28;20044;-81
2021/11/30 02:22:28;;;;;;;1.83;1.00;;;1.30;99.90;;;;;;5047715;28;20025;-81
2021/11/30 02:24:55;;;;;;;2.07;0.80;;;1.20;99.90;;;;;;5029096;28;20065;-81
2021/11/30 02:27:21;;;;;;;1.20;0.70;;;1.20;99.90;;;;;;5034307;28;20025;-81
2021/11/30 02:29:47;;;;;;;3.17;0.97;;;1.20;99.90;;;;;;5033093;28;20025;-80
2021/11/30 02:32:13;;;;;;;1.60;0.80;;;1.20;99.90;;;;;;5060070;28;20029;-81
2021/11/30 02:34:39;;;;;;;2.20;0.90;;;1.20;99.90;;;;;;5053523;28;20027;-81
2021/11/30 02:37:07;;;;;;;1.97;0.70;;;1.20;99.90;;;;;;5047908;28;20057;-82
2021/11/30 02:39:35;;;;;;;1.63;0.80;;;1.20;99.90;;;;;;5046793;28;20078;-81
2021/11/30 02:42:03;;;;;;;5.23;0.97;;;1.20;99.90;;;;;;5041293;28;20029;-82
2021/11/30 02:44:30;;;;;;;3.00;1.10;;;1.20;99.90;;;;;;5034225;28;20048;-81
2021/11/30 02:46:59;;;;;;;2.90;0.83;;;1.20;99.90;;;;;;5053520;28;20099;-81
2021/11/30 02:49:28;;;;;;;3.13;0.90;;;1.10;99.90;;;;;;5038700;28;20017;-82
2021/11/30 02:52:03;;;;;;;1.50;0.70;;;1.10;99.90;;;;;;5019680;28;20025;-81
2021/11/30 02:54:29;;;;;;;3.00;0.90;;;1.10;99.90;;;;;;5059540;28;20047;-81
2021/11/30 02:56:57;;;;;;;1.93;0.70;;;1.10;99.90;;;;;;5037998;28;20021;-81
2021/11/30 02:59:25;;;;;;;2.43;1.00;;;1.10;99.90;;;;;;5060064;28;20021;-82
2021/11/30 03:01:57;;;;;;;2.10;0.73;;;1.10;99.90;;;;;;5059649;28;20017;-82
2021/11/30 03:04:24;;;;;;;3.40;0.98;;;1.10;99.90;;;;;;5033821;28;20064;-81
2021/11/30 03:06:51;;;;;;;1.87;0.80;;;1.10;99.90;;;;;;5060918;28;20054;-80
2021/11/30 03:09:16;;;;;;;2.40;0.90;;;1.00;99.90;;;;;;5042457;28;20021;-82
2021/11/30 03:11:43;;;;;;;2.63;0.87;;;1.10;99.90;;;;;;5039828;28;20028;-81
2021/11/30 03:14:09;;;;;;;2.73;0.83;;;1.00;99.90;;;;;;5053744;28;20049;-82
2021/11/30 03:16:34;;;;;;;3.17;1.00;;;1.00;99.90;;;;;;5033384;28;20071;-81
2021/11/30 03:19:01;;;;;;;2.30;0.90;;;1.00;99.90;;;;;;5032197;28;20556;-81
2021/11/30 03:21:27;;;;;;;4.20;0.80;;;1.00;99.90;;;;;;5060306;28;20018;-82
2021/11/30 03:23:53;;;;;;;1.30;0.50;;;1.00;99.90;;;;;;5052216;28;20087;-80
2021/11/30 03:26:19;;;;;;;1.57;0.60;;;1.00;99.90;;;;;;5045765;28;20044;-80
2021/11/30 03:28:45;;;;;;;2.30;0.57;;;1.00;99.90;;;;;;5040219;28;20030;-81
2021/11/30 03:31:32;;;;;;;3.17;0.90;;;1.00;99.90;;;;;;5059011;28;20060;-81
2021/11/30 03:34:02;;;;;;;1.07;0.50;;;1.00;99.90;;;;;;5034562;28;20021;-81
2021/11/30 03:36:30;;;;;;;2.00;0.70;;;1.00;99.90;;;;;;5048198;28;20025;-81
2021/11/30 03:38:57;;;;;;;1.40;0.70;;;1.00;99.90;;;;;;5038714;28;20063;-81
2021/11/30 03:41:24;;;;;;;2.77;0.67;;;1.00;99.90;;;;;;5057021;28;20613;-81
2021/11/30 03:43:50;;;;;;;1.03;0.43;;;1.00;99.90;;;;;;5029832;28;20509;-81
2021/11/30 03:46:16;;;;;;;3.13;0.63;;;1.00;99.90;;;;;;4999684;28;20491;-81
2021/11/30 03:48:42;;;;;;;3.17;0.43;;;1.00;99.90;;;;;;5018940;28;20029;-81
2021/11/30 03:51:07;;;;;;;1.87;0.70;;;1.00;99.90;;;;;;5001178;28;20036;-81
2021/11/30 03:53:33;;;;;;;1.50;0.73;;;1.00;99.90;;;;;;5035882;28;20073;-80
2021/11/30 03:55:59;;;;;;;1.27;0.80;;;1.10;99.90;;;;;;5018066;28;20082;-81
2021/11/30 03:58:24;;;;;;;6.13;0.77;;;1.00;99.90;;;;;;5016701;28;20451;-82
2021/11/30 04:00:50;;;;;;;1.60;0.60;;;1.00;99.90;;;;;;5027569;28;20020;-81
2021/11/30 04:03:16;;;;;;;3.97;0.90;;;0.90;99.90;;;;;;5051227;28;20111;-80
2021/11/30 04:05:42;;;;;;;1.93;0.67;;;0.90;99.90;;;;;;5052137;28;20021;-81
2021/11/30 04:08:07;;;;;;;2.87;0.73;;;0.90;99.90;;;;;;5055624;28;20536;-81
2021/11/30 04:10:33;;;;;;;3.03;0.90;;;0.90;99.90;;;;;;5049794;28;20065;-81
2021/11/30 04:12:59;;;;;;;2.30;0.60;;;0.90;99.90;;;;;;5054139;28;20480;-81
2021/11/30 04:15:24;;;;;;;2.20;0.70;;;0.90;99.90;;;;;;5034111;28;20022;-81
2021/11/30 04:17:50;;;;;;;1.40;0.67;;;0.90;99.90;;;;;;5008994;28;20037;-81
2021/11/30 04:20:16;;;;;;;1.43;0.63;;;0.80;99.90;;;;;;5036635;28;20083;-80
2021/11/30 04:22:43;;;;;;;1.40;0.37;;;0.80;99.90;;;;;;5039885;28;20017;-81
2021/11/30 04:25:12;;;;;;;2.93;1.03;;;0.90;99.90;;;;;;5038179;28;20031;-80
2021/11/30 04:27:38;;;;;;;3.23;0.60;;;0.90;99.90;;;;;;5038179;28;20022;-81
2021/11/30 04:30:05;;;;;;;3.03;0.70;;;0.80;99.90;;;;;;5022191;28;20025;-81
2021/11/30 04:32:31;;;;;;;2.77;1.00;;;0.80;99.90;;;;;;5017395;28;20030;-81
2021/11/30 04:34:57;;;;;;;3.17;0.80;;;0.80;99.90;;;;;;4999451;28;20026;-81
2021/11/30 04:37:23;;;;;;;3.77;0.60;;;0.80;99.90;;;;;;5029259;22;20172;-84
2021/11/30 04:39:49;;;;;;;2.23;0.80;;;0.80;99.90;;;;;;5012246;28;20435;-84
2021/11/30 04:42:14;;;;;;;4.60;0.97;;;0.70;99.90;;;;;;5012072;28;20061;-83
2021/11/30 04:44:50;;;;;;;3.30;0.93;;;0.80;99.90;;;;;;5005378;28;20030;-84
2021/11/30 04:47:16;;;;;;;1.67;0.70;;;0.70;99.90;;;;;;4993229;28;20120;-83
2021/11/30 04:49:57;;;;;;;3.33;0.60;;;0.70;99.90;;;;;;5014227;28;20065;-83
2021/11/30 04:52:23;;;;;;;2.77;0.97;;;0.70;99.90;;;;;;5015521;28;20022;-83
2021/11/30 04:54:49;;;;;;;2.47;0.70;;;0.70;99.90;;;;;;5014023;28;20112;-84
2021/11/30 04:57:14;;;;;;;1.63;0.70;;;0.70;99.90;;;;;;5020298;28;20022;-84
2021/11/30 04:59:40;;;;;;;2.43;1.00;;;0.70;99.90;;;;;;5002619;28;20477;-83
2021/11/30 05:02:06;;;;;;;5.40;1.30;;;0.70;99.90;;;;;;5033984;28;20486;-84
2021/11/30 05:04:34;;;;;;;2.73;1.13;;;0.70;99.90;;;;;;5026719;28;20116;-83
2021/11/30 05:07:00;;;;;;;2.03;0.83;;;0.70;99.90;;;;;;5015098;28;20088;-84
2021/11/30 05:09:25;;;;;;;2.83;0.80;;;0.70;99.90;;;;;;5015028;28;20116;-84
2021/11/30 05:11:51;;;;;;;0.80;0.33;;;0.70;99.90;;;;;;5010686;28;20030;-83
2021/11/30 05:14:17;;;;;;;4.47;1.30;;;0.70;99.90;;;;;;5001641;28;20034;-85
2021/11/30 05:16:42;;;;;;;2.07;0.97;;;0.70;99.90;;;;;;4997159;28;20094;-84
2021/11/30 05:19:08;;;;;;;1.70;0.73;;;0.70;99.90;;;;;;5016749;28;20049;-84
2021/11/30 05:21:34;;;;;;;1.23;0.67;;;0.80;99.90;;;;;;5027319;28;20037;-83
2021/11/30 05:24:03;;;;;;;1.07;0.60;;;0.70;99.90;;;;;;5011694;28;20092;-83
2021/11/30 05:26:30;;;;;;;3.60;0.93;;;0.70;99.90;;;;;;5022843;28;20026;-85
2021/11/30 05:28:56;;;;;;;1.80;0.77;;;0.70;99.90;;;;;;5020176;28;20091;-85
2021/11/30 05:31:22;;;;;;;1.63;0.63;;;0.70;99.90;;;;;;5020836;28;20383;-84
2021/11/30 05:33:48;;;;;;;4.97;1.17;;;0.60;99.90;;;;;;5012917;28;20108;-84
2021/11/30 05:36:16;;;;;;;2.50;0.90;;;0.60;99.90;;;;;;5018147;28;20056;-84
2021/11/30 05:38:42;;;;;;;2.87;1.17;;;0.60;99.90;;;;;;5031171;28;20022;-84
2021/11/30 05:41:08;;;;;;;1.03;0.60;;;0.60;99.90;;;;;;5016372;28;20553;-84
2021/11/30 05:43:33;;;;;;;6.50;0.87;;;0.60;99.90;;;;;;5013967;28;20017;-84
2021/11/30 05:45:59;;;;;;;4.80;0.70;;;0.50;99.90;;;;;;5012046;28;20022;-84
2021/11/30 05:48:25;;;;;;;4.17;0.77;;;0.50;99.90;;;;;;5010814;28;20052;-85
2021/11/30 05:50:51;;;;;;;2.97;1.10;;;0.60;99.90;;;;;;5010578;28;20018;-84
2021/11/30 05:53:17;;;;;;;6.47;1.37;;;0.60;99.90;;;;;;5008849;28;20029;-84
2021/11/30 05:55:44;;;;;;;6.53;1.50;;;0.60;99.90;;;;;;5003366;28;20026;-84
2021/11/30 05:58:13;;;;;;;1.93;0.87;;;0.60;99.90;;;;;;5008438;28;20109;-86
2021/11/30 06:00:39;;;;;;;2.93;0.90;;;0.60;99.90;;;;;;5013534;28;20021;-84
2021/11/30 06:03:08;;;;;;;1.10;0.50;;;0.60;99.90;;;;;;5009158;28;20438;-84
2021/11/30 06:05:34;;;;;;;3.93;1.30;;;0.60;99.90;;;;;;5011086;28;20022;-86
2021/11/30 06:08:03;;;;;;;6.93;1.00;;;0.60;99.90;;;;;;5006931;28;20025;-84
2021/11/30 06:10:29;;;;;;;2.43;0.77;;;0.60;99.90;;;;;;5009682;28;20026;-84
2021/11/30 06:12:58;;;;;;;4.83;1.10;;;0.60;99.90;;;;;;5004059;28;20633;-84
2021/11/30 06:15:23;;;;;;;1.63;1.03;;;0.60;99.90;;;;;;5003290;28;20040;-85
2021/11/30 06:17:49;;;;;;;1.80;0.93;;;0.60;99.90;;;;;;5002458;28;20018;-84
2021/11/30 06:20:17;;;;;;;1.83;0.90;;;0.60;99.90;;;;;;4995066;28;20084;-85
2021/11/30 06:22:42;;;;;;;1.97;0.73;;;0.60;99.90;;;;;;5001279;28;20022;-85
2021/11/30 06:25:08;;;;;;;2.47;1.10;;;0.60;99.90;;;;;;5009797;28;20045;-84
2021/11/30 06:27:35;;;;;;;1.60;0.63;;;0.60;99.90;;;;;;5003073;28;20070;-84
2021/11/30 06:30:00;;;;;;;3.17;0.90;;;0.60;99.90;;;;;;5014579;28;20026;-84
2021/11/30 06:32:26;;;;;;;2.47;1.03;;;0.50;99.90;;;;;;5017559;28;20040;-84
2021/11/30 06:34:53;;;;;;;1.83;0.70;;;0.50;99.90;;;;;;5011035;28;20045;-83
2021/11/30 06:37:19;;;;;;;1.80;0.73;;;0.40;99.90;;;;;;5021912;28;20061;-81
2021/11/30 06:39:45;;;;;;;2.53;1.10;;;0.40;99.90;;;;;;5025345;28;20022;-82
2021/11/30 06:42:11;;;;;;;3.00;1.30;;;0.30;99.90;;;;;;5031568;28;20060;-84
2021/11/30 06:44:36;;;;;;;3.70;0.93;;;0.30;99.90;;;;;;5025105;28;20041;-84
2021/11/30 06:47:04;;;;;;;2.30;0.90;;;0.30;99.90;;;;;;5004628;28;20037;-85
2021/11/30 06:49:30;;;;;;;3.30;1.67;;;0.30;99.90;;;;;;4997732;28;20030;-83
2021/11/30 06:51:56;;;;;;;1.90;0.83;;;0.30;99.90;;;;;;5003385;28;20037;-83
2021/11/30 06:54:22;;;;;;;6.10;1.73;;;0.30;99.90;;;;;;5003318;28;20117;-84
2021/11/30 06:56:47;;;;;;;2.43;1.03;;;0.30;99.90;;;;;;5007688;28;20023;-83
2021/11/30 06:59:13;;;;;;;4.63;1.27;;;0.20;99.90;;;;;;5013388;28;20018;-83
2021/11/30 07:01:40;;;;;;;2.90;1.20;;;0.20;99.90;;;;;;5009171;28;20022;-81
2021/11/30 07:04:06;;;;;;;5.23;1.23;;;0.20;99.90;;;;;;5007052;28;20058;-82
2021/11/30 07:09:15;;;;;;;3.50;1.30;;;0.20;99.90;;;;;;5013691;28;20057;-83
2021/11/30 07:14:07;;;;;;;4.43;1.23;;;0.50;99.90;;;;;;5005464;28;20037;-81
2021/11/30 07:16:35;;;;;;;1.57;0.87;;;0.30;99.90;;;;;;5011207;28;20026;-81
2021/11/30 07:19:00;;;;;;;2.67;0.80;;;0.30;99.90;;;;;;5012015;28;20022;-82
2021/11/30 07:21:27;;;;;;;2.93;0.83;;;0.40;99.90;;;;;;5010838;28;20084;-83
2021/11/30 07:23:55;;;;;;;2.00;0.97;;;0.30;99.90;;;;;;5012025;28;20029;-81
2021/11/30 07:26:22;;;;;;;0.97;0.20;;;0.40;99.90;;;;;;5013778;28;20088;-82
2021/11/30 07:28:48;;;;;;;0.97;0.50;;;0.40;99.90;;;;;;5006161;28;20033;-83
2021/11/30 07:31:15;;;;;;;0.77;0.50;;;0.50;99.90;;;;;;5011756;28;20542;-84
2021/11/30 07:33:44;;;;;;;3.03;1.03;;;0.50;99.90;;;;;;5015149;28;20529;-84
2021/11/30 07:36:12;;;;;;;1.37;0.60;;;0.50;99.90;;;;;;5018211;28;20390;-84
2021/11/30 07:38:39;;;;;;;0.77;0.30;;;0.50;99.90;;;;;;5005080;28;20049;-82
2021/11/30 07:41:06;;;;;;;1.93;0.80;;;0.50;99.90;;;;;;5012122;28;20030;-83
2021/11/30 07:43:33;;;;;;;3.63;0.60;;;0.50;99.90;;;;;;5011583;28;20435;-85
2021/11/30 07:45:59;;;;;;;2.17;0.90;;;0.60;99.90;;;;;;5009982;28;20029;-84
2021/11/30 07:48:27;;;;;;;2.83;1.37;;;0.60;99.90;;;;;;5011241;28;20084;-86
2021/11/30 07:50:53;;;;;;;1.97;0.80;;;0.60;99.90;;;;;;5005383;28;20029;-85
2021/11/30 07:53:19;;;;;;;1.17;0.30;;;0.70;99.90;;;;;;4995583;28;20026;-85
2021/11/30 07:55:44;;;;;;;1.87;0.80;;;0.70;99.90;;;;;;4994562;28;20105;-83
2021/11/30 07:58:10;;;;;;;1.17;0.60;;;0.70;99.90;;;;;;5007780;28;20109;-84
2021/11/30 08:00:36;;;;;;;1.03;0.50;;;0.70;99.90;;;;;;5012636;28;20022;-84
2021/11/30 08:03:03;;;;;;;0.47;0.20;;;0.70;99.90;;;;;;5012773;28;20129;-84
2021/11/30 08:05:31;;;;;;;0.43;0.40;;;0.80;99.90;;;;;;5008367;28;20038;-84
2021/11/30 08:07:59;;;;;;;0.67;0.30;;;0.80;99.90;;;;;;5008753;28;20042;-84
2021/11/30 08:10:27;;;;;;;2.13;0.70;;;0.80;99.90;;;;;;4992350;28;20633;-85
2021/11/30 08:12:53;;;;;;;0.83;0.50;;;0.80;99.90;;;;;;5010390;28;20495;-84
2021/11/30 08:15:22;;;;;;;1.77;0.50;;;0.80;99.90;;;;;;5005506;28;20057;-84
2021/11/30 08:17:48;;;;;;;0.57;0.23;;;0.80;99.90;;;;;;5005281;28;20026;-86
2021/11/30 08:20:14;;;;;;;3.30;1.00;;;1.00;99.90;;;;;;5017766;28;20060;-85
2021/11/30 08:22:41;;;;;;;1.37;0.33;;;0.80;99.90;;;;;;5012185;28;20475;-85
2021/11/30 08:25:08;;;;;;;0.80;0.50;;;0.80;99.90;;;;;;5014641;28;20041;-85
2021/11/30 08:27:35;;;;;;;1.83;0.87;;;0.80;99.90;;;;;;5015119;28;20067;-85
2021/11/30 08:30:01;;;;;;;2.30;0.80;;;0.80;99.90;;;;;;5014658;28;20033;-84
2021/11/30 08:32:32;;;;;;;1.27;0.50;;;0.80;99.90;;;;;;4996859;28;20038;-85
2021/11/30 08:34:58;;;;;;;2.77;0.70;;;0.80;99.90;;;;;;4996605;28;20545;-84
2021/11/30 08:37:26;;;;;;;0.80;0.30;;;0.80;99.90;;;;;;4996524;28;20403;-83
2021/11/30 08:39:54;;;;;;;0.90;0.40;;;0.90;99.90;;;;;;5005461;28;20479;-84
2021/11/30 08:42:24;;;;;;;1.40;0.40;;;0.90;99.90;;;;;;4994722;28;20030;-84
2021/11/30 08:44:52;;;;;;;2.33;0.53;;;1.00;99.90;;;;;;4997632;28;20101;-84
2021/11/30 08:47:20;;;;;;;1.73;0.67;;;1.00;99.90;;;;;;4994476;28;20030;-84
2021/11/30 08:49:46;;;;;;;0.97;0.60;;;1.00;99.90;;;;;;5009517;28;20045;-86
2021/11/30 08:52:17;;;;;;;0.80;0.37;;;1.00;99.90;;;;;;5014955;28;20030;-85
2021/11/30 08:54:46;;;;;;;0.87;0.33;;;1.10;99.90;;;;;;5014116;28;20576;-85
2021/11/30 08:57:15;;;;;;;1.27;0.47;;;1.10;99.90;;;;;;5009589;28;20022;-84
2021/11/30 08:59:41;;;;;;;1.40;0.53;;;1.10;99.90;;;;;;5014541;28;20041;-83
2021/11/30 09:02:09;;;;;;;0.97;0.50;;;1.10;99.90;;;;;;5014950;28;20022;-84
2021/11/30 09:04:36;;;;;;;1.50;0.50;;;1.10;99.90;;;;;;5015689;28;20045;-84
2021/11/30 09:07:03;;;;;;;1.57;0.80;;;1.20;99.90;;;;;;5012557;28;20041;-82
2021/11/30 09:09:29;;;;;;;0.90;0.30;;;1.20;99.90;;;;;;4998707;28;20029;-84
2021/11/30 09:11:56;;;;;;;0.50;0.30;;;1.40;99.90;;;;;;5012997;28;20056;-84
2021/11/30 09:14:22;;;;;;;1.10;0.60;;;1.20;99.90;;;;;;5031564;28;20069;-84
2021/11/30 09:16:50;;;;;;;0.80;0.30;;;1.20;99.90;;;;;;5014844;28;20018;-84
2021/11/30 09:19:15;;;;;;;2.63;0.67;;;1.20;99.90;;;;;;5009233;28;20544;-83
2021/11/30 09:21:42;;;;;;;0.53;0.27;;;1.20;99.90;;;;;;5010965;28;20018;-85
2021/11/30 09:24:08;;;;;;;2.43;0.70;;;1.20;99.90;;;;;;5002771;28;20026;-84
2021/11/30 09:26:34;;;;;;;2.40;0.93;;;1.20;99.90;;;;;;5017625;28;20029;-83
2021/11/30 09:28:59;;;;;;;2.03;0.83;;;1.30;99.90;;;;;;5014360;28;20045;-84
2021/11/30 09:31:25;;;;;;;0.73;0.27;;;1.20;99.90;;;;;;5008642;28;20053;-83
2021/11/30 09:33:50;;;;;;;1.60;0.63;;;1.20;99.90;;;;;;5016935;28;20117;-84
2021/11/30 09:36:16;;;;;;;2.20;0.70;;;1.20;99.90;;;;;;5019409;28;20029;-84
2021/11/30 09:38:43;;;;;;;1.30;0.40;;;1.30;99.90;;;;;;5006985;28;20026;-86
2021/11/30 09:41:09;;;;;;;2.97;0.50;;;1.30;99.90;;;;;;5011112;28;20030;-83
2021/11/30 09:43:37;;;;;;;1.23;0.40;;;1.40;99.90;;;;;;5003801;28;20457;-83
2021/11/30 09:46:05;;;;;;;1.50;0.40;;;1.40;99.90;;;;;;5003420;28;20399;-83
2021/11/30 09:48:31;;;;;;;2.20;0.60;;;1.40;99.90;;;;;;5014302;28;20026;-83
2021/11/30 09:50:58;;;;;;;0.80;0.37;;;1.40;99.90;;;;;;5009227;28;20068;-82
2021/11/30 09:53:26;;;;;;;1.70;0.43;;;1.40;99.90;;;;;;5012087;28;20578;-83
2021/11/30 09:55:54;;;;;;;0.93;0.37;;;1.50;99.90;;;;;;5018200;28;20025;-83
2021/11/30 09:58:21;;;;;;;0.67;0.40;;;1.50;99.90;;;;;;5011417;28;20622;-84
2021/11/30 10:00:49;;;;;;;0.73;0.37;;;1.60;99.90;;;;;;5010220;28;20017;-84
2021/11/30 10:03:15;;;;;;;1.00;0.40;;;1.50;99.90;;;;;;5010476;28;20022;-84
2021/11/30 10:05:42;;;;;;;1.50;0.50;;;1.50;99.90;;;;;;5011848;28;20037;-85
2021/11/30 10:08:43;;;;;;;0.90;0.40;;;1.50;99.90;;;;;;5013792;28;20018;-86
2021/11/30 10:11:28;;;;;;;0.50;0.30;;;1.50;99.90;;;;;;5004480;28;20042;-84
2021/11/30 10:14:33;;;;;;;0.80;0.30;;;1.60;99.90;;;;;;4994973;28;20117;-86
2021/11/30 10:17:30;;;;;;;0.80;0.37;;;1.60;99.90;;;;;;4963961;28;20081;-84
2021/11/30 10:19:59;;;;;;;1.00;0.20;;;1.60;99.90;;;;;;4993345;28;20026;-84
2021/11/30 10:22:42;;;;;;;1.70;0.20;;;1.60;99.90;;;;;;4994361;28;20026;-85
2021/11/30 10:25:28;;;;;;;;;;;1.70;99.90;;;;;;5011122;28;20096;-83
2021/11/30 10:28:00;;;;;;;0.20;0.10;;;1.70;99.90;;;;;;5011133;28;20500;-84
2021/11/30 10:30:28;;;;;;;0.70;0.10;;;1.70;99.90;;;;;;5019178;28;20030;-84
2021/11/30 10:32:56;;;;;;;0.70;0.20;;;1.60;99.90;;;;;;5011133;28;20589;-84
2021/11/30 10:35:25;;;;;;;0.60;0.20;;;1.60;99.90;;;;;;5004650;28;20030;-84
2021/11/30 10:37:52;;;;;;;0.50;0.20;;;1.60;99.90;;;;;;5010020;28;20052;-85
2021/11/30 10:40:24;;;;;;;1.10;0.20;;;1.50;99.90;;;;;;4992321;28;20084;-85
2021/11/30 10:42:55;;;;;;;0.32;0.10;;;1.60;99.90;;;;;;4991031;28;20030;-85
2021/11/30 10:45:27;;;;;;;0.20;0.10;;;1.60;99.90;;;;;;4992518;28;20053;-85
2021/11/30 10:47:53;;;;;;;2.00;0.60;;;1.50;99.90;;;;;;5003048;28;20281;-84
2021/11/30 10:50:25;;;;;;;0.67;0.20;;;1.50;99.90;;;;;;5005622;28;20477;-84
2021/11/30 10:52:52;;;;;;;2.38;0.40;;;1.50;99.90;;;;;;5012867;28;20026;-84
2021/11/30 10:55:18;;;;;;;1.70;0.30;;;1.40;99.90;;;;;;5010980;28;20465;-84
2021/11/30 10:57:47;;;;;;;1.80;0.40;;;1.40;99.90;;;;;;5011820;28;20030;-84
2021/11/30 11:00:24;;;;;;;0.63;0.30;;;1.40;99.90;;;;;;5011807;28;20050;-84
2021/11/30 11:03:13;;;;;;;1.40;0.23;;;1.40;99.90;;;;;;5011325;28;20048;-84
2021/11/30 11:08:56;;;;;;;0.60;0.20;;;1.40;99.90;;;;;;4993576;28;20194;-84
2021/11/30 11:11:27;;;;;;;0.80;0.20;;;1.40;99.90;;;;;;4995506;28;20033;-84
2021/11/30 11:13:54;;;;;;;0.30;0.17;;;1.50;99.90;;;;;;5008066;28;20026;-85
2021/11/30 11:16:53;;;;;;;0.90;0.20;;;1.50;99.90;;;;;;5005153;28;20030;-85
2021/11/30 11:19:42;;;;;;;0.60;0.17;;;1.50;99.90;;;;;;5005550;28;20050;-85
2021/11/30 11:22:23;;;;;;;0.93;0.30;;;1.50;99.90;;;;;;5006690;28;20041;-84
2021/11/30 11:24:51;;;;;;;1.13;0.40;;;1.50;99.90;;;;;;5011361;28;20018;-84
2021/11/30 11:27:49;;;;;;;0.30;0.17;;;1.60;99.90;;;;;;5008648;28;20029;-85
2021/11/30 11:30:15;;;;;;;0.50;0.10;;;1.60;99.90;;;;;;4999329;28;20113;-85
2021/11/30 11:32:43;;;;;;;0.57;0.20;;;1.60;99.90;;;;;;5008190;28;20101;-85
2021/11/30 11:35:11;;;;;;;0.90;0.43;;;1.60;99.90;;;;;;5009482;28;20034;-84
2021/11/30 11:37:44;;;;;;;0.33;0.20;;;1.70;99.90;;;;;;4998711;28;20038;-85
2021/11/30 11:40:13;;;;;;;0.70;0.33;;;1.60;99.90;;;;;;5006231;28;20038;-85
2021/11/30 11:42:43;;;;;;;0.40;0.20;;;1.70;99.90;;;;;;5006184;28;20183;-84
2021/11/30 11:45:09;;;;;;;2.20;0.33;;;1.70;99.90;;;;;;5001936;28;20116;-85
2021/11/30 11:48:01;;;;;;;1.23;0.23;;;1.70;99.90;;;;;;4999492;28;20050;-85
2021/11/30 11:50:37;;;;;;;2.70;0.20;;;1.70;99.90;;;;;;4991013;28;20022;-85
2021/11/30 11:53:29;;;;;;;0.53;0.20;;;1.80;99.90;;;;;;5007042;28;20034;-84
2021/11/30 11:56:15;;;;;;;0.23;0.10;;;1.80;99.90;;;;;;5033932;23;20038;-85
2021/11/30 11:58:43;;;;;;;0.37;0.20;;;1.80;99.90;;;;;;5002115;28;20035;-84
2021/11/30 12:01:23;;;;;;;0.77;0.20;;;1.80;99.90;;;;;;4990438;28;20027;-85
2021/11/30 12:03:56;;;;;;;0.97;0.37;;;1.80;99.90;;;;;;4986663;28;20038;-84
2021/11/30 12:06:26;;;;;;;0.53;0.20;;;1.80;99.90;;;;;;4978469;28;20685;-84
2021/11/30 12:09:21;;;;;;;0.73;0.20;;;1.80;99.90;;;;;;4996375;28;20109;-83
2021/11/30 12:11:57;;;;;;;1.10;0.23;;;1.80;99.90;;;;;;4992966;28;20034;-85
2021/11/30 12:14:33;;;;;;;1.17;0.30;;;1.80;99.90;;;;;;4981686;28;20403;-84
2021/11/30 12:17:10;;;;;;;0.67;0.20;;;1.90;99.90;;;;;;4978408;28;20065;-84
2021/11/30 12:19:40;;;;;;;1.03;0.20;;;1.80;99.90;;;;;;4993733;28;20081;-85
2021/11/30 12:22:06;;;;;;;0.50;0.20;;;1.80;99.90;;;;;;4987032;28;20030;-85
2021/11/30 12:24:34;;;;;;;0.43;0.20;;;1.80;99.90;;;;;;4974499;28;20035;-84
2021/11/30 12:27:20;;;;;;;0.83;0.33;;;1.80;99.90;;;;;;4986662;28;20566;-85
2021/11/30 12:29:46;;;;;;;1.20;0.30;;;1.90;99.90;;;;;;4988017;28;20038;-85
2021/11/30 12:32:32;;;;;;;0.63;0.20;;;1.90;99.90;;;;;;4992599;28;20027;-85
2021/11/30 12:35:06;;;;;;;0.93;0.27;;;1.80;99.90;;;;;;4995328;28;20031;-84
2021/11/30 12:37:33;;;;;;;3.00;0.43;;;1.80;99.90;;;;;;4987282;28;20026;-84
2021/11/30 12:40:04;;;;;;;0.60;0.20;;;1.80;99.90;;;;;;4990301;28;20030;-84
2021/11/30 12:42:31;;;;;;;0.10;0.10;;;1.80;99.90;;;;;;4982289;28;20030;-85
2021/11/30 12:44:57;;;;;;;0.50;0.20;;;1.80;99.90;;;;;;4981800;28;20034;-85
2021/11/30 12:47:28;;;;;;;0.30;0.20;;;1.70;99.90;;;;;;4992880;28;20037;-85
2021/11/30 12:49:55;;;;;;;0.70;0.17;;;1.70;99.90;;;;;;4989157;28;20030;-86
2021/11/30 12:52:34;;;;;;;0.83;0.40;;;1.60;99.90;;;;;;4986215;28;21221;-85
2021/11/30 12:55:00;;;;;;;0.50;0.20;;;1.60;99.90;;;;;;4991292;28;20043;-86
2021/11/30 12:57:28;;;;;;;0.53;0.20;;;1.60;99.90;;;;;;4971392;28;20102;-85
2021/11/30 12:59:57;;;;;;;0.37;0.20;;;1.60;99.90;;;;;;4984581;28;20050;-86
2021/11/30 13:02:39;;;;;;;0.47;0.13;;;1.60;99.90;;;;;;4992270;28;20053;-86
2021/11/30 13:05:08;;;;;;;0.10;0.03;;;1.60;99.90;;;;;;4976153;28;20022;-86
2021/11/30 13:07:46;;;;;;;4.47;0.60;;;1.60;99.90;;;;;;4982488;28;20035;-87
2021/11/30 13:10:20;;;;;;;0.23;0.10;;;1.50;99.90;;;;;;4989094;28;20034;-85
2021/11/30 13:12:47;;;;;;;0.63;0.10;;;1.50;99.90;;;;;;4990610;28;20038;-87
2021/11/30 13:15:13;;;;;;;0.20;0.17;;;1.40;99.90;;;;;;4992799;28;20466;-88
2021/11/30 13:17:39;;;;;;;0.80;0.23;;;1.60;99.90;;;;;;4976347;28;20034;-88
2021/11/30 13:20:09;;;;;;;2.20;0.97;;;1.70;99.90;;;;;;4992883;28;20045;-87